• Join FlightAware (Why Join?)
  • Login
  • US Flag 
12:15AM EDT


 

Airport Tracker/Info


-or-


 

Live Flight TrackerFlight Track Log ✈ CTL18 ✈ 09-May-2013 ✈ KYIP - KBKL

Flight Track Log - Related Links

Times and Time Zones

All times are in EDT time to prevent confusion due to time zone crossing. See the CTL18 flight status page for this flight to view local times or setup timezone preferences in your user account.

Time Position Orientation Groundspeed Altitude Reporting Facility
EDT Latitude Longitude Course Direction KTS MPH feet Rate Location/Type
09:08PM 42.2067 -83.5742 230° Southwest 128 147 1,700  Level Cleveland Center
09:09PM 42.1747 -83.5953 206° Southwest 137 158 2,500 660 Climbing Cleveland Center
09:10PM 42.1372 -83.5906 175° South 146 168 3,100 180 Climbing Cleveland Center
09:11PM 42.0856 -83.5797 171° South 172 198 3,000 -120 Descending Cleveland Center
09:12PM 42.0558 -83.5225 125° Southeast 176 203 2,900  Descending Cleveland Center
09:13PM 42.0386 -83.4600 110° East 173 199 3,100 60 Climbing Cleveland Center
09:14PM 42.0211 -83.4006 112° Southeast 174 200 3,100 240 Level Cleveland Center
09:15PM 42.0058 -83.3497 112° Southeast 167 192 3,600 600 Climbing Cleveland Center
09:16PM 41.9886 -83.2875 110° East 169 194 4,300 540 Climbing Cleveland Center
09:17PM 41.9731 -83.2364 112° Southeast 164 189 4,700 360 Climbing Cleveland Center
09:18PM 41.9536 -83.1769 114° Southeast 171 197 5,000 180 Climbing Cleveland Center
09:19PM 41.9342 -83.1064 110° East 182 209 5,100  Climbing Cleveland Center
09:20PM 41.9169 -83.0444 110° East 183 211 5,100 -60 Level Cleveland Center
09:21PM 41.9017 -82.9797 108° East 184 212 5,000 -60 Descending Cleveland Center
09:22PM 41.8819 -82.9175 113° Southeast 181 208 5,000  Level Cleveland Center
09:22PM 41.8739 -82.9006 123° Southeast 180 207 5,000  Level Cleveland Center
09:24PM 41.8486 -82.8075 110° East 182 209 5,000  Level Cleveland Center
09:24PM 41.8369 -82.7653 110° East 182 209 5,100  Climbing Cleveland Center
09:26PM 41.8114 -82.6808 112° Southeast 181 208 5,100 -60 Level Cleveland Center
09:26PM 41.8017 -82.6417 108° East 180 207 5,000 -60 Descending Cleveland Center
09:28PM 41.7700 -82.5486 115° Southeast 181 208 5,000  Level Cleveland Center
09:29PM 41.7583 -82.5067 110° East 180 207 5,000  Level Cleveland Center
09:30PM 41.7425 -82.4450 109° East 178 205 5,000  Level Cleveland Center
09:31PM 41.7250 -82.3803 110° East 181 208 5,000  Level Cleveland Center
09:31PM 41.7092 -82.3217 110° East 180 207 5,000  Level Cleveland Center
09:33PM 41.6872 -82.2458 111° Southeast 179 206 5,000 -180 Level Cleveland Center
09:34PM 41.6653 -82.1814 114° Southeast 184 212 4,600 -360 Descending Cleveland Center
09:35PM 41.6453 -82.1142 112° Southeast 188 216 4,300 -420 Descending Cleveland Center
09:36PM 41.6275 -82.0500 110° East 189 217 3,800 -660 Descending Cleveland Center
09:37PM 41.6053 -81.9800 113° Southeast 191 220 3,000 -780 Descending Cleveland Center
09:38PM 41.5833 -81.9156 114° Southeast 179 206 2,300 -600 Descending Cleveland Center
09:39PM 41.5650 -81.8681 117° Southeast 173 199 1,900 -480 Descending Cleveland Center
09:40PM 41.5447 -81.8122 116° Southeast 154 177 1,400 -300 Descending Cleveland Center
09:41PM 41.5286 -81.7619 113° Southeast 136 157 1,300 -180 Descending Cleveland Center
09:42PM 41.5144 -81.7200 114° Southeast 110 127 1,100 -240 Descending Cleveland Center
09:44PM 41.5175 -81.6833 110° East  Level Estimated
09:51PM 41.5175 -81.6833 110° East  Level Estimated